ADDS METAR Data INFO
IDs: Format: Raw Decoded Include TAF

Data at: 0216 UTC 14 Dec 2017

KADH 140155Z AUTO 33004KT 10SM CLR 12/M03 A2990 RMK AO2
KADH 140135Z AUTO 00000KT 10SM CLR 12/M03 A2990 RMK AO2
KADH 140115Z AUTO 00000KT 10SM CLR 10/M03 A2990 RMK AO2
KADH 140055Z AUTO 00000KT 10SM CLR 14/M03 A2989 RMK AO2
KADH 140035Z AUTO 36004KT 10SM CLR 15/M03 A2989 RMK AO2
KADH 140015Z AUTO 00000KT 10SM CLR 15/M03 A2989 RMK AO2
KADH 132355Z AUTO 36004KT 10SM CLR 15/M03 A2988 RMK AO2
KADH 132335Z AUTO 35004KT 10SM CLR 15/M03 A2988 RMK AO2
KADH 132315Z AUTO 36004KT 10SM CLR 16/M03 A2988 RMK AO2
KADH 132255Z AUTO 00000KT 10SM CLR 17/M03 A2988 RMK AO2
KADH 132235Z AUTO 35003KT 10SM CLR 17/M03 A2988 RMK AO2
KADH 132215Z AUTO 35004KT 10SM CLR 18/M03 A2988 RMK AO2
KADH 132155Z AUTO 34003KT 10SM CLR 18/M03 A2988 RMK AO2
KADH 132135Z AUTO 35005KT 10SM CLR 18/M04 A2988 RMK AO2
KADH 132115Z AUTO 36006KT 10SM CLR 18/M04 A2988 RMK AO2
KADH 132055Z AUTO 36004KT 10SM CLR 18/M04 A2988 RMK AO2
KADH 132035Z AUTO 34008KT 310V010 10SM CLR 19/M04 A2988 RMK AO2
KADH 132015Z AUTO 01008KT 10SM CLR 19/M05 A2988 RMK AO2
KADH 131955Z AUTO 36009KT 10SM CLR 18/M05 A2989 RMK AO2
KADH 131935Z AUTO 30004KT 10SM CLR 18/M05 A2990 RMK AO2
KADH 131915Z AUTO 33006KT 10SM CLR 18/M05 A2990 RMK AO2
KADH 131855Z AUTO 30005KT 10SM CLR 17/M05 A2992 RMK AO2
KADH 131835Z AUTO 29006KT 10SM CLR 16/M06 A2993 RMK AO2
KADH 131815Z AUTO 31006KT 10SM CLR 16/M05 A2993 RMK AO2
KADH 131755Z AUTO 29008KT 10SM CLR 16/M06 A2995 RMK AO2
KADH 131735Z AUTO 27009KT 10SM CLR 15/M06 A2995 RMK AO2
KADH 131715Z AUTO 28009KT 10SM CLR 14/M06 A2996 RMK AO2
KADH 131655Z AUTO 27007KT 10SM CLR 13/M06 A2997 RMK AO2
KADH 131635Z AUTO 27007KT 10SM CLR 13/M06 A2996 RMK AO2
KADH 131615Z AUTO 29009KT 10SM CLR 13/M06 A2996 RMK AO2
KADH 131555Z AUTO 28005KT 10SM CLR 11/M06 A2995 RMK AO2
KADH 131530Z AUTO 25008KT 10SM CLR 10/M06 A2993 RMK AO2
KADH 131515Z AUTO 25009KT 10SM CLR 09/M06 A2993 RMK AO2
KADH 131455Z AUTO 25007KT 10SM CLR 07/M06 A2993 RMK AO2
KADH 131435Z AUTO 25006KT 10SM CLR 06/M05 A2994 RMK AO2
KADH 131415Z AUTO 24008KT 10SM CLR 06/M05 A2994 RMK AO2
KADH 131355Z AUTO 23008KT 10SM CLR 05/M05 A2995 RMK AO2
KADH 131335Z AUTO 25005KT 10SM CLR 05/M05 A2996 RMK AO2
KADH 131315Z AUTO 23005KT 10SM CLR 05/M05 A2996 RMK AO2
KADH 131255Z AUTO 25006KT 10SM CLR 05/M05 A2996 RMK AO2
KADH 131235Z AUTO 24007KT 10SM CLR 06/M05 A2995 RMK AO2
KADH 131215Z AUTO 24007KT 10SM CLR 05/M05 A2995 RMK AO2
KADH 131155Z AUTO 24004KT 10SM CLR 05/M05 A2996 RMK AO2
KADH 131135Z AUTO 23005KT 10SM CLR 05/M05 A2996 RMK AO2
KADH 131115Z AUTO 23005KT 10SM CLR 06/M05 A2997 RMK AO2
KADH 131055Z AUTO 23005KT 10SM CLR 06/M04 A2997 RMK AO2
KADH 131035Z AUTO 23007KT 10SM CLR 06/M04 A2998 RMK AO2
KADH 131015Z AUTO 23007KT 10SM CLR 06/M04 A2999 RMK AO2
KADH 130955Z AUTO 22008KT 10SM CLR 06/M03 A2999 RMK AO2
KADH 130935Z AUTO 22007KT 10SM CLR 06/M03 A3000 RMK AO2
KADH 130915Z AUTO 22006KT 10SM CLR 07/M03 A3001 RMK AO2
KADH 130855Z AUTO 21007KT 10SM CLR 07/M03 A3002 RMK AO2
KADH 130835Z AUTO 21006KT 10SM CLR 06/M03 A3003 RMK AO2
KADH 130815Z AUTO 20004KT 10SM CLR 03/M03 A3004 RMK AO2
KADH 130755Z AUTO 19004KT 10SM CLR 03/M03 A3005 RMK AO2
KADH 130735Z AUTO 18004KT 10SM CLR 03/M03 A3005 RMK AO2
KADH 130715Z AUTO 19005KT 10SM CLR 03/M03 A3006 RMK AO2
KADH 130655Z AUTO 19005KT 10SM CLR 03/M02 A3007 RMK AO2
KADH 130635Z AUTO 19004KT 10SM CLR 02/M03 A3008 RMK AO2
KADH 130615Z AUTO 00000KT 10SM CLR 02/M03 A3010 RMK AO2
KADH 130555Z AUTO 19003KT 10SM CLR 02/M03 A3011 RMK AO2
KADH 130535Z AUTO 17003KT 10SM CLR 02/M03 A3011 RMK AO2
KADH 130515Z AUTO 00000KT 10SM CLR 02/M03 A3012 RMK AO2
KADH 130455Z AUTO 00000KT 10SM CLR 03/M03 A3013 RMK AO2
KADH 130435Z AUTO 21003KT 10SM CLR 04/M03 A3014 RMK AO2
KADH 130415Z AUTO 00000KT 10SM CLR 04/M03 A3014 RMK AO2
KADH 130355Z AUTO 21003KT 10SM CLR 04/M03 A3016 RMK AO2
KADH 130335Z AUTO 22003KT 10SM CLR 05/M03 A3017 RMK AO2
KADH 130315Z AUTO 22004KT 10SM CLR 05/M03 A3017 RMK AO2
KADH 130255Z AUTO 22004KT 10SM CLR 04/M03 A3018 RMK AO2
KADH 130235Z AUTO 22003KT 10SM CLR 03/M03 A3019 RMK AO2
KADH 130215Z AUTO 23004KT 10SM CLR 03/M03 A3020 RMK AO2
KADH 130155Z AUTO 23003KT 10SM CLR 04/M03 A3021 RMK AO2
KADH 130135Z AUTO 00000KT 10SM CLR 04/M03 A3022 RMK AO2
KADH 130115Z AUTO 25003KT 10SM CLR 05/M03 A3022 RMK AO2
KADH 130055Z AUTO 00000KT 10SM CLR 05/M03 A3022 RMK AO2
KADH 130035Z AUTO 00000KT 10SM CLR 05/M03 A3022 RMK AO2
KADH 130015Z AUTO 00000KT 10SM CLR 06/M03 A3023 RMK AO2
KADH 122355Z AUTO 00000KT 10SM CLR 07/M03 A3024 RMK AO2
KADH 122335Z AUTO 00000KT 10SM CLR 07/M03 A3024 RMK AO2
KADH 122315Z AUTO 31003KT 10SM CLR 08/M03 A3025 RMK AO2
KADH 122255Z AUTO 30003KT 10SM CLR 09/M03 A3026 RMK AO2
KADH 122235Z AUTO 30004KT 10SM CLR 10/M03 A3026 RMK AO2
KADH 122215Z AUTO 30004KT 10SM CLR 10/M03 A3027 RMK AO2
KADH 122155Z AUTO 31005KT 10SM CLR 10/M04 A3027 RMK AO2
KADH 122135Z AUTO 34004KT 10SM CLR 10/M04 A3028 RMK AO2
KADH 122115Z AUTO 30005KT 10SM CLR 10/M04 A3029 RMK AO2
KADH 122055Z AUTO 32005KT 10SM CLR 10/M05 A3029 RMK AO2
KADH 122035Z AUTO 31007KT 10SM CLR 10/M05 A3030 RMK AO2
KADH 122015Z AUTO 34006KT 10SM CLR 09/M06 A3031 RMK AO2
KADH 121955Z AUTO 30004KT 10SM CLR 09/M06 A3033 RMK AO2
KADH 121935Z AUTO 29006KT 10SM CLR 09/M06 A3034 RMK AO2
KADH 121915Z AUTO 30003KT 10SM CLR 08/M06 A3036 RMK AO2
KADH 121855Z AUTO 36005KT 10SM CLR 08/M06 A3037 RMK AO2
KADH 121835Z AUTO 34006KT 10SM CLR 08/M08 A3038 RMK AO2
KADH 121815Z AUTO 32005KT 10SM CLR 08/M08 A3039 RMK AO2
KADH 121755Z AUTO 35007KT 10SM CLR 08/M07 A3041 RMK AO2
KADH 121735Z AUTO 35007KT 10SM CLR 07/M08 A3042 RMK AO2
KADH 121715Z AUTO 01010G14KT 10SM CLR 07/M07 A3042 RMK AO2
KADH 121655Z AUTO 36009KT 10SM CLR 06/M07 A3043 RMK AO2
KADH 121635Z AUTO 36009G14KT 10SM CLR 06/M07 A3043 RMK AO2
KADH 121615Z AUTO 34009KT 10SM CLR 06/M05 A3043 RMK AO2
KADH 121555Z AUTO 34008KT 10SM CLR 05/M03 A3043 RMK AO2
KADH 121535Z AUTO 36008KT 10SM CLR 05/M03 A3042 RMK AO2
KADH 121515Z AUTO 34009KT 10SM CLR 04/M02 A3042 RMK AO2
KADH 121455Z AUTO 33005KT 10SM CLR 03/M02 A3041 RMK AO2
KADH 121435Z AUTO 34005KT 10SM CLR 02/M02 A3041 RMK AO2